Time;durP1;ratioP1;P1;durP2;ratioP2;P2;SDS_P1;SDS_P2;PMS_P1;PMS_P2;Temp;Humidity;BMP_temperature;BMP_pressure;BME280_temperature;BME280_humidity;BME280_pressure;Samples;Min_cycle;Max_cycle;Signal;HPM_P1;HPM_P2
2021/08/25 00:00:38;;;;;;;15.93;12.50;;;14.10;99.90;;;;;;4948588;29;20051;-58
2021/08/25 00:03:05;;;;;;;12.38;10.75;;;14.10;99.90;;;;;;4949720;28;20420;-58
2021/08/25 00:05:31;;;;;;;14.85;11.98;;;14.00;99.90;;;;;;4949939;28;20066;-58
2021/08/25 00:08:00;;;;;;;13.65;11.35;;;14.10;99.90;;;;;;4967188;28;20061;-58
2021/08/25 00:10:29;;;;;;;13.60;12.27;;;14.00;99.90;;;;;;4967666;28;20047;-57
2021/08/25 00:13:00;;;;;;;13.85;11.63;;;14.00;99.90;;;;;;4968104;28;20160;-58
2021/08/25 00:15:28;;;;;;;13.82;12.43;;;14.00;99.90;;;;;;4949340;29;20051;-58
2021/08/25 00:17:56;;;;;;;14.60;11.95;;;13.90;99.90;;;;;;4962193;28;20709;-58
2021/08/25 00:20:22;;;;;;;15.75;13.13;;;13.90;99.90;;;;;;4966870;28;20061;-57
2021/08/25 00:22:49;;;;;;;14.20;11.82;;;13.90;99.90;;;;;;4968322;28;20054;-57
2021/08/25 00:25:15;;;;;;;13.85;12.10;;;13.80;99.90;;;;;;4943335;28;20424;-57
2021/08/25 00:27:42;;;;;;;18.20;13.27;;;13.80;99.90;;;;;;4960788;28;20051;-57
2021/08/25 00:30:08;;;;;;;14.05;12.55;;;13.80;99.90;;;;;;4950253;28;20055;-57
2021/08/25 00:32:37;;;;;;;15.70;12.75;;;13.80;99.90;;;;;;4968044;28;20070;-57
2021/08/25 00:35:03;;;;;;;15.63;13.23;;;13.80;99.90;;;;;;4968469;28;20059;-57
2021/08/25 00:37:32;;;;;;;15.77;13.77;;;13.70;99.90;;;;;;4968005;28;20144;-58
2021/08/25 00:40:01;;;;;;;16.13;13.68;;;13.70;99.90;;;;;;4949709;29;20522;-57
2021/08/25 00:42:27;;;;;;;17.42;14.85;;;13.70;99.90;;;;;;4951110;28;20149;-58
2021/08/25 00:44:55;;;;;;;16.15;13.52;;;13.70;99.90;;;;;;4949907;29;20055;-57
2021/08/25 00:47:23;;;;;;;16.52;14.15;;;13.70;99.90;;;;;;4949128;29;20062;-57
2021/08/25 00:49:49;;;;;;;16.25;13.00;;;13.70;99.90;;;;;;4950480;28;20069;-57
2021/08/25 00:52:26;;;;;;;15.82;14.13;;;13.70;99.90;;;;;;4933883;28;20154;-57
2021/08/25 00:54:53;;;;;;;16.55;13.75;;;13.70;99.90;;;;;;4958725;28;20160;-57
2021/08/25 00:57:22;;;;;;;18.20;14.35;;;13.70;99.90;;;;;;4959881;28;20067;-58
2021/08/25 00:59:48;;;;;;;18.23;13.43;;;13.70;99.90;;;;;;4952538;28;20102;-57
2021/08/25 01:02:33;;;;;;;15.35;13.68;;;13.60;99.90;;;;;;4948987;28;20051;-57
2021/08/25 01:05:02;;;;;;;16.40;13.95;;;13.60;99.90;;;;;;4948497;29;20082;-57
2021/08/25 01:07:38;;;;;;;17.48;14.70;;;13.50;99.90;;;;;;4931755;29;20684;-57
2021/08/25 01:10:25;;;;;;;16.98;15.18;;;13.50;99.90;;;;;;4931698;28;20158;-57
2021/08/25 01:12:53;;;;;;;17.83;15.82;;;13.50;99.90;;;;;;4948868;28;20138;-57
2021/08/25 01:15:19;;;;;;;17.77;15.00;;;13.50;99.90;;;;;;4956840;28;20043;-57
2021/08/25 01:17:51;;;;;;;19.98;16.08;;;13.50;99.90;;;;;;4932543;29;20114;-57
2021/08/25 01:20:21;;;;;;;17.40;15.45;;;13.40;99.90;;;;;;4966792;28;20133;-56
2021/08/25 01:22:47;;;;;;;18.08;16.23;;;13.40;99.90;;;;;;4967424;28;20059;-57
2021/08/25 01:25:17;;;;;;;20.10;17.40;;;13.30;99.90;;;;;;4967022;28;20050;-57
2021/08/25 01:27:52;;;;;;;20.90;18.05;;;13.30;99.90;;;;;;4948602;28;20062;-57
2021/08/25 01:30:20;;;;;;;19.63;17.20;;;13.30;99.90;;;;;;4967893;28;20574;-57
2021/08/25 01:32:46;;;;;;;22.58;18.15;;;13.30;99.90;;;;;;4966592;28;20061;-57
2021/08/25 01:35:12;;;;;;;19.77;17.77;;;13.30;99.90;;;;;;4968035;28;20074;-57
2021/08/25 01:37:39;;;;;;;19.40;17.40;;;13.30;99.90;;;;;;4961802;28;20051;-57
2021/08/25 01:40:05;;;;;;;19.77;17.73;;;13.30;99.90;;;;;;4948441;29;20055;-57
2021/08/25 01:42:34;;;;;;;21.70;18.25;;;13.20;99.90;;;;;;4957747;28;20047;-57
2021/08/25 01:45:01;;;;;;;19.80;17.33;;;13.30;99.90;;;;;;4964600;28;20098;-57
2021/08/25 01:47:27;;;;;;;19.13;17.15;;;13.20;99.90;;;;;;4952373;28;20145;-57
2021/08/25 01:49:54;;;;;;;19.40;17.35;;;13.20;99.90;;;;;;4960135;28;20188;-57
2021/08/25 01:52:21;;;;;;;21.23;18.88;;;13.10;99.90;;;;;;4935165;28;20062;-57
2021/08/25 01:54:51;;;;;;;20.90;18.30;;;13.10;99.90;;;;;;4969557;28;20054;-57
2021/08/25 01:57:17;;;;;;;19.15;16.52;;;13.10;99.90;;;;;;4964755;28;20066;-57
2021/08/25 01:59:46;;;;;;;14.13;12.63;;;13.00;99.90;;;;;;4969016;28;20496;-57
2021/08/25 02:02:12;;;;;;;14.00;12.57;;;12.90;99.90;;;;;;4970132;28;20132;-57
2021/08/25 02:04:40;;;;;;;13.40;12.07;;;12.90;99.90;;;;;;4965678;28;20051;-57
2021/08/25 02:07:08;;;;;;;16.33;14.65;;;12.80;99.90;;;;;;4952682;28;20102;-57
2021/08/25 02:09:34;;;;;;;19.92;17.92;;;12.90;99.90;;;;;;4957335;28;20500;-57
2021/08/25 02:12:03;;;;;;;23.60;21.08;;;12.90;99.90;;;;;;4971154;28;20142;-57
2021/08/25 02:14:30;;;;;;;25.23;21.05;;;12.90;99.90;;;;;;4970011;28;20054;-57
2021/08/25 02:16:59;;;;;;;22.02;19.88;;;12.90;99.90;;;;;;4959199;28;20122;-57
2021/08/25 02:19:25;;;;;;;24.45;20.67;;;12.90;99.90;;;;;;4950971;28;20055;-57
2021/08/25 02:21:53;;;;;;;23.88;21.35;;;12.90;99.90;;;;;;4952171;28;20059;-57
2021/08/25 02:24:21;;;;;;;24.98;22.55;;;12.80;99.90;;;;;;4934453;28;20139;-57
2021/08/25 02:26:47;;;;;;;26.45;23.00;;;12.80;99.90;;;;;;4950807;29;20531;-56
2021/08/25 02:29:17;;;;;;;29.42;26.52;;;12.80;99.90;;;;;;4951017;28;20058;-57
2021/08/25 02:31:43;;;;;;;28.35;23.85;;;12.80;99.90;;;;;;4964087;28;20533;-55
2021/08/25 02:34:14;;;;;;;29.42;25.83;;;12.80;99.90;;;;;;4970424;28;20047;-57
2021/08/25 02:36:40;;;;;;;28.30;25.27;;;12.90;99.90;;;;;;4958332;28;20062;-57
2021/08/25 02:39:08;;;;;;;31.23;27.90;;;12.80;99.90;;;;;;4950778;29;20555;-57
2021/08/25 02:41:36;;;;;;;19.25;17.13;;;12.90;99.90;;;;;;4957398;28;20059;-57
2021/08/25 02:44:03;;;;;;;16.52;14.75;;;12.70;99.90;;;;;;4969994;28;20101;-57
2021/08/25 02:46:34;;;;;;;17.55;15.85;;;12.60;99.90;;;;;;4963993;28;20039;-57
2021/08/25 02:49:03;;;;;;;18.52;16.63;;;12.50;99.90;;;;;;4950978;29;20055;-57
2021/08/25 02:51:29;;;;;;;18.77;16.88;;;12.50;99.90;;;;;;4951722;28;20812;-57
2021/08/25 02:53:55;;;;;;;16.60;14.90;;;12.40;99.90;;;;;;4949919;28;20059;-57
2021/08/25 02:56:26;;;;;;;16.85;15.00;;;12.30;99.90;;;;;;4935414;29;20099;-56
2021/08/25 02:58:53;;;;;;;18.60;16.58;;;12.20;99.90;;;;;;4941270;29;20075;-55
2021/08/25 03:01:19;;;;;;;18.85;16.85;;;12.20;99.90;;;;;;4932403;29;20086;-56
2021/08/25 03:03:48;;;;;;;19.67;17.58;;;12.20;99.90;;;;;;4944397;29;20094;-57
2021/08/25 03:06:17;;;;;;;20.60;18.40;;;12.20;99.90;;;;;;4949978;29;20047;-56
2021/08/25 03:08:45;;;;;;;20.20;17.63;;;12.30;99.90;;;;;;4950492;29;20061;-56
2021/08/25 03:11:14;;;;;;;23.08;20.58;;;12.20;99.90;;;;;;4946079;29;20364;-57
2021/08/25 03:13:42;;;;;;;24.05;21.55;;;12.30;99.90;;;;;;4942729;29;20055;-57
2021/08/25 03:16:11;;;;;;;25.88;23.13;;;12.30;99.90;;;;;;4931376;29;20055;-57
2021/08/25 03:18:37;;;;;;;30.00;26.50;;;12.30;99.90;;;;;;4931842;29;20052;-57
2021/08/25 03:21:06;;;;;;;32.45;28.92;;;12.30;99.90;;;;;;4930956;29;20059;-57
2021/08/25 03:23:32;;;;;;;31.90;28.63;;;12.40;99.90;;;;;;4914260;29;20059;-56
2021/08/25 03:25:58;;;;;;;30.67;27.63;;;12.30;99.90;;;;;;4950489;29;20058;-56
2021/08/25 03:28:24;;;;;;;33.88;29.92;;;12.30;99.90;;;;;;4949187;29;20054;-56
2021/08/25 03:30:56;;;;;;;33.60;30.17;;;12.30;99.90;;;;;;4950125;29;20456;-56
2021/08/25 03:33:22;;;;;;;31.00;27.88;;;12.40;99.90;;;;;;4950138;29;20056;-57
2021/08/25 03:35:49;;;;;;;19.55;17.42;;;12.30;99.90;;;;;;4938260;29;20126;-57
2021/08/25 03:38:15;;;;;;;23.10;19.55;;;12.20;99.90;;;;;;4932184;29;20055;-56
2021/08/25 03:40:42;;;;;;;23.00;20.65;;;12.20;99.90;;;;;;4931210;29;20163;-57
2021/08/25 03:43:08;;;;;;;25.08;22.10;;;12.30;99.90;;;;;;4913870;29;20569;-56
2021/08/25 03:45:36;;;;;;;27.73;25.00;;;12.30;99.90;;;;;;4932047;29;20079;-57
2021/08/25 03:48:03;;;;;;;27.77;24.83;;;12.40;99.90;;;;;;4930551;29;20067;-57
2021/08/25 03:50:29;;;;;;;32.35;28.98;;;12.40;99.90;;;;;;4946936;29;20102;-57
2021/08/25 03:52:55;;;;;;;46.63;37.70;;;12.50;99.90;;;;;;4949832;29;20058;-57
2021/08/25 03:55:22;;;;;;;47.13;38.70;;;12.50;99.90;;;;;;4949859;28;20105;-57
2021/08/25 03:57:49;;;;;;;55.72;38.47;;;12.60;99.90;;;;;;4954769;28;20082;-57
2021/08/25 04:00:15;;;;;;;59.88;40.70;;;12.60;99.90;;;;;;4958561;28;20055;-57
2021/08/25 04:02:41;;;;;;;97.72;46.15;;;12.60;99.90;;;;;;4969087;28;20065;-57
2021/08/25 04:05:08;;;;;;;71.32;34.88;;;12.60;99.90;;;;;;4968783;28;20162;-57
2021/08/25 04:07:34;;;;;;;47.05;24.08;;;12.60;99.90;;;;;;4958920;28;20126;-57
2021/08/25 04:10:03;;;;;;;63.13;29.30;;;12.60;99.90;;;;;;4960872;28;20053;-57
2021/08/25 04:12:31;;;;;;;62.70;28.48;;;12.50;99.90;;;;;;4968852;28;20055;-57
2021/08/25 04:14:57;;;;;;;67.65;32.58;;;12.40;99.90;;;;;;4968536;28;20094;-57
2021/08/25 04:17:24;;;;;;;42.53;31.83;;;12.50;99.90;;;;;;4954101;28;20569;-57
2021/08/25 04:19:50;;;;;;;102.57;40.15;;;12.50;99.90;;;;;;4956111;28;20055;-57
2021/08/25 04:22:16;;;;;;;93.90;39.33;;;12.60;99.90;;;;;;4966908;28;20059;-57
2021/08/25 04:24:44;;;;;;;65.28;32.33;;;12.60;99.90;;;;;;4968419;28;20423;-57
2021/08/25 04:27:10;;;;;;;106.55;34.00;;;12.60;99.90;;;;;;4968475;28;20061;-57
2021/08/25 04:29:37;;;;;;;57.55;32.45;;;12.70;99.90;;;;;;4966101;28;20047;-57
2021/08/25 04:32:08;;;;;;;75.57;33.25;;;12.70;99.90;;;;;;4960258;28;20055;-57
2021/08/25 04:34:34;;;;;;;78.97;31.65;;;12.70;99.90;;;;;;4948756;29;20086;-57
2021/08/25 04:37:01;;;;;;;76.90;33.50;;;12.70;99.90;;;;;;4948488;29;20055;-57
2021/08/25 04:39:30;;;;;;;106.90;31.27;;;12.80;99.90;;;;;;4957077;28;21000;-56
2021/08/25 04:41:58;;;;;;;89.32;28.42;;;12.80;99.90;;;;;;4966892;28;20073;-57
2021/08/25 04:44:26;;;;;;;61.95;29.50;;;12.80;99.90;;;;;;4967632;28;20435;-57
2021/08/25 04:46:55;;;;;;;98.75;26.02;;;12.80;99.90;;;;;;4955554;28;20086;-58
2021/08/25 04:49:23;;;;;;;79.97;24.63;;;12.80;99.90;;;;;;4964952;28;20110;-57
2021/08/25 04:51:52;;;;;;;57.50;22.70;;;12.80;99.90;;;;;;4953227;28;20806;-57
2021/08/25 04:54:20;;;;;;;97.45;24.98;;;12.90;99.90;;;;;;4952797;28;20435;-57
2021/08/25 04:56:49;;;;;;;76.78;23.42;;;12.80;99.90;;;;;;4953689;28;20058;-56
2021/08/25 04:59:18;;;;;;;102.63;26.65;;;12.90;99.90;;;;;;4969362;28;20142;-56
2021/08/25 05:01:46;;;;;;;92.88;24.52;;;12.90;99.90;;;;;;4968211;28;20742;-55
2021/08/25 05:04:17;;;;;;;57.13;23.75;;;12.90;99.90;;;;;;4958185;28;20137;-54
2021/08/25 05:06:43;;;;;;;98.05;26.02;;;12.90;99.90;;;;;;4949618;29;20063;-55
2021/08/25 05:09:09;;;;;;;68.28;25.10;;;13.00;99.90;;;;;;4962142;28;20101;-53
2021/08/25 05:11:36;;;;;;;65.63;24.50;;;12.90;99.90;;;;;;4963787;28;20156;-54
2021/08/25 05:14:02;;;;;;;64.93;25.80;;;13.00;99.90;;;;;;4967116;28;20407;-54
2021/08/25 05:16:28;;;;;;;50.45;23.65;;;13.00;99.90;;;;;;4969699;28;20058;-55
2021/08/25 05:18:54;;;;;;;99.43;26.13;;;13.00;99.90;;;;;;4970629;28;20131;-54
2021/08/25 05:21:22;;;;;;;128.80;36.78;;;13.10;99.90;;;;;;4972170;28;20097;-52
2021/08/25 05:23:48;;;;;;;97.05;27.27;;;13.10;99.90;;;;;;4958162;28;20193;-54
2021/08/25 05:26:18;;;;;;;95.10;24.30;;;13.20;99.90;;;;;;4967819;28;20054;-54
2021/08/25 05:28:46;;;;;;;114.38;26.13;;;13.20;99.90;;;;;;4971693;28;20051;-54
2021/08/25 05:31:12;;;;;;;111.78;26.98;;;13.10;99.90;;;;;;4972298;28;20533;-53
2021/08/25 05:33:41;;;;;;;71.22;23.48;;;13.20;99.90;;;;;;4973558;28;20086;-54
2021/08/25 05:36:10;;;;;;;50.42;21.65;;;13.20;99.90;;;;;;4972350;28;20063;-53
2021/08/25 05:38:38;;;;;;;55.83;23.90;;;13.30;99.90;;;;;;4954639;28;20074;-53
2021/08/25 05:41:07;;;;;;;38.55;23.08;;;13.30;99.90;;;;;;4972280;28;20388;-52
2021/08/25 05:43:34;;;;;;;40.22;19.85;;;13.30;99.90;;;;;;4972624;28;20523;-54
2021/08/25 05:46:02;;;;;;;19.98;18.02;;;13.40;99.90;;;;;;4972276;28;20452;-53
2021/08/25 05:48:31;;;;;;;19.55;17.65;;;13.50;99.90;;;;;;4975877;28;20055;-53
2021/08/25 05:51:00;;;;;;;21.83;18.67;;;13.50;99.90;;;;;;4972513;28;20780;-51
2021/08/25 05:53:26;;;;;;;18.38;16.48;;;13.60;99.90;;;;;;4958251;28;20428;-55
2021/08/25 05:55:52;;;;;;;16.70;15.30;;;13.70;99.90;;;;;;4945693;28;20059;-55
2021/08/25 05:58:18;;;;;;;15.40;14.02;;;13.80;99.90;;;;;;4950256;29;20062;-54
2021/08/25 06:00:44;;;;;;;23.98;21.73;;;13.90;99.90;;;;;;4950114;28;20154;-53
2021/08/25 06:03:10;;;;;;;20.38;18.48;;;13.90;99.90;;;;;;4945176;29;20134;-53
2021/08/25 06:05:39;;;;;;;16.42;14.93;;;14.00;99.90;;;;;;4932608;28;20047;-53
2021/08/25 06:08:05;;;;;;;14.25;12.98;;;14.20;99.90;;;;;;4951204;29;20070;-53
2021/08/25 06:10:34;;;;;;;13.65;12.40;;;14.40;99.90;;;;;;4952319;29;20063;-54
2021/08/25 06:13:05;;;;;;;37.53;33.58;;;14.50;99.90;;;;;;4951463;29;20401;-54
2021/08/25 06:15:34;;;;;;;13.70;12.32;;;14.70;99.90;;;;;;4951452;28;20059;-54
2021/08/25 06:18:02;;;;;;;13.48;12.27;;;14.80;99.90;;;;;;4945853;28;20059;-53
2021/08/25 06:20:30;;;;;;;12.85;11.63;;;15.00;99.90;;;;;;4948805;29;20078;-54
2021/08/25 06:22:59;;;;;;;12.20;11.07;;;15.20;99.90;;;;;;4951083;29;20133;-48
2021/08/25 06:25:31;;;;;;;13.63;11.63;;;15.40;99.90;;;;;;4951307;29;20055;-49
2021/08/25 06:28:02;;;;;;;11.40;9.32;;;15.50;99.90;;;;;;4948789;28;20198;-51
2021/08/25 06:30:29;;;;;;;17.98;16.10;;;15.80;99.90;;;;;;4952495;28;20055;-52
2021/08/25 06:32:58;;;;;;;10.15;9.15;;;16.00;99.90;;;;;;4935416;29;20064;-47
2021/08/25 06:35:24;;;;;;;9.57;8.48;;;16.20;99.90;;;;;;4934562;28;20051;-52
2021/08/25 06:37:50;;;;;;;9.27;8.07;;;16.40;99.90;;;;;;4948743;29;20063;-52
2021/08/25 06:40:16;;;;;;;12.32;11.13;;;16.60;99.90;;;;;;4949909;28;20062;-52
2021/08/25 06:42:45;;;;;;;11.00;8.55;;;17.00;99.90;;;;;;4933288;28;20146;-54
2021/08/25 06:45:12;;;;;;;7.03;6.32;;;17.10;99.90;;;;;;4930183;29;20792;-53
2021/08/25 06:47:41;;;;;;;9.55;8.57;;;17.20;99.90;;;;;;4934075;29;20059;-55
2021/08/25 06:50:12;;;;;;;47.67;42.85;;;17.40;99.90;;;;;;4922569;28;20059;-55
2021/08/25 06:52:38;;;;;;;6.85;6.03;;;17.70;99.90;;;;;;4945958;28;20404;-54
2021/08/25 06:55:04;;;;;;;21.38;19.27;;;17.90;99.90;;;;;;4954660;28;20220;-54
2021/08/25 06:57:46;;;;;;;6.82;5.25;;;18.20;99.90;;;;;;4951472;28;20455;-55
2021/08/25 07:00:15;;;;;;;6.65;5.07;;;18.50;99.90;;;;;;4968147;28;20047;-53
2021/08/25 07:02:41;;;;;;;5.85;5.20;;;18.70;99.90;;;;;;4965077;28;20094;-55
2021/08/25 07:05:11;;;;;;;6.47;5.10;;;19.20;99.90;;;;;;4953142;28;20054;-50
2021/08/25 07:07:42;;;;;;;10.05;5.05;;;19.20;99.90;;;;;;4948843;28;20098;-55
2021/08/25 07:10:14;;;;;;;4.85;4.35;;;19.40;99.90;;;;;;4962283;28;20071;-55
2021/08/25 07:12:40;;;;;;;7.38;4.47;;;19.60;99.90;;;;;;4963904;28;20051;-55
2021/08/25 07:15:16;;;;;;;6.85;4.07;;;19.70;99.90;;;;;;4963347;28;20062;-55
2021/08/25 07:17:50;;;;;;;6.13;4.20;;;19.90;99.90;;;;;;4968720;28;20101;-55
2021/08/25 07:20:19;;;;;;;5.57;4.40;;;20.20;99.90;;;;;;4966736;28;20097;-53
2021/08/25 07:22:48;;;;;;;5.90;3.42;;;20.50;99.90;;;;;;4950364;28;20489;-54
2021/08/25 07:25:20;;;;;;;6.57;4.25;;;20.70;99.90;;;;;;4967296;28;20597;-53
2021/08/25 07:27:49;;;;;;;5.03;3.58;;;20.90;99.90;;;;;;4955878;28;20051;-55
2021/08/25 07:30:18;;;;;;;5.97;3.75;;;21.20;99.90;;;;;;4967722;28;20093;-55
2021/08/25 07:32:49;;;;;;;6.80;3.60;;;21.30;99.90;;;;;;4954503;28;20546;-53
2021/08/25 07:35:21;;;;;;;6.70;3.30;;;21.50;99.90;;;;;;4967123;28;20118;-54
2021/08/25 07:37:49;;;;;;;6.60;3.47;;;21.40;99.90;;;;;;4967618;28;20055;-55
2021/08/25 07:40:18;;;;;;;6.70;3.42;;;21.40;99.90;;;;;;4948800;28;20081;-55
2021/08/25 07:42:49;;;;;;;5.43;3.35;;;21.00;99.90;;;;;;4965050;28;20106;-55
2021/08/25 07:45:18;;;;;;;5.88;3.28;;;20.60;99.90;;;;;;4969528;28;20059;-55
2021/08/25 07:47:46;;;;;;;;;;;20.10;99.90;;;;;;4966668;28;20052;-56
2021/08/25 07:50:16;;;;;;;5.65;3.10;;;19.70;99.90;;;;;;4968711;28;19922;-55
2021/08/25 07:52:45;;;;;;;5.32;2.10;;;20.00;99.90;;;;;;4958558;28;20055;-54
2021/08/25 07:55:16;;;;;;;5.35;2.40;;;20.40;99.90;;;;;;4968392;28;20134;-53
2021/08/25 07:57:45;;;;;;;4.90;2.10;;;20.90;99.90;;;;;;4965611;28;20066;-54
2021/08/25 08:00:14;;;;;;;4.78;2.25;;;21.30;99.90;;;;;;4953068;28;20405;-56
2021/08/25 08:02:47;;;;;;;4.88;2.38;;;21.60;99.90;;;;;;4964261;28;20047;-55
2021/08/25 08:05:18;;;;;;;4.85;2.97;;;21.60;99.90;;;;;;4949305;29;20051;-56
2021/08/25 08:07:51;;;;;;;6.00;2.65;;;21.80;99.90;;;;;;4960802;28;20586;-55
2021/08/25 08:10:20;;;;;;;5.82;4.10;;;22.10;99.90;;;;;;4959086;28;20122;-55
2021/08/25 08:12:47;;;;;;;6.10;2.95;;;22.50;99.90;;;;;;4966901;28;20134;-56
2021/08/25 08:15:18;;;;;;;5.18;2.55;;;22.50;99.90;;;;;;4967598;28;20108;-55
2021/08/25 08:17:46;;;;;;;4.30;2.50;;;22.80;99.90;;;;;;4950172;28;20046;-56
2021/08/25 08:20:18;;;;;;;5.53;2.13;;;23.10;99.90;;;;;;4967301;28;20066;-54
2021/08/25 08:22:48;;;;;;;4.30;2.13;;;22.50;99.90;;;;;;4967666;28;20073;-55
2021/08/25 08:25:19;;;;;;;4.95;2.05;;;21.90;99.90;;;;;;4944897;28;20055;-55
2021/08/25 08:27:46;;;;;;;3.90;2.22;;;22.10;99.90;;;;;;4965069;28;20051;-56
2021/08/25 08:30:13;;;;;;;5.63;2.53;;;22.70;99.90;;;;;;4967391;28;20550;-56
2021/08/25 08:32:42;;;;;;;5.75;2.50;;;23.20;99.90;;;;;;4967373;28;20175;-55
2021/08/25 08:35:10;;;;;;;4.68;1.90;;;22.80;99.90;;;;;;4963901;28;20055;-56
2021/08/25 08:37:40;;;;;;;3.38;1.75;;;22.60;99.90;;;;;;4950073;28;20062;-55
2021/08/25 08:40:09;;;;;;;3.33;1.42;;;22.80;99.90;;;;;;4966791;28;20059;-55
2021/08/25 08:42:36;;;;;;;3.80;1.75;;;23.10;97.20;;;;;;4965687;28;20419;-55
2021/08/25 08:45:10;;;;;;;5.93;1.65;;;23.00;99.30;;;;;;4961235;28;20055;-54
2021/08/25 08:47:41;;;;;;;4.18;1.40;;;23.30;94.30;;;;;;4933841;28;20101;-56
2021/08/25 08:50:07;;;;;;;5.60;2.03;;;23.80;96.00;;;;;;4958961;28;20407;-54
2021/08/25 08:52:34;;;;;;;3.42;1.67;;;23.60;93.20;;;;;;4962504;28;20738;-54
2021/08/25 08:55:02;;;;;;;3.53;1.70;;;24.10;93.50;;;;;;4955261;28;20066;-55
2021/08/25 08:57:32;;;;;;;5.88;2.08;;;24.20;91.70;;;;;;4951632;28;20763;-53
2021/08/25 09:00:04;;;;;;;3.25;1.30;;;24.40;89.70;;;;;;4947936;28;20090;-55
2021/08/25 09:02:39;;;;;;;3.35;1.70;;;23.70;80.20;;;;;;4965159;28;20647;-55
2021/08/25 09:05:27;;;;;;;5.00;1.98;;;23.10;81.80;;;;;;4962331;28;20055;-54
2021/08/25 09:08:00;;;;;;;4.53;2.28;;;22.90;90.60;;;;;;4966731;28;20054;-54
2021/08/25 09:10:38;;;;;;;5.03;1.83;;;23.20;92.90;;;;;;4967086;28;20059;-51
2021/08/25 09:13:06;;;;;;;3.40;1.85;;;22.80;92.30;;;;;;4967786;28;20059;-54
2021/08/25 09:15:38;;;;;;;5.60;2.22;;;22.90;91.10;;;;;;4966768;28;20059;-53
2021/08/25 09:18:19;;;;;;;4.60;1.77;;;22.80;92.50;;;;;;4967450;28;20110;-53
2021/08/25 09:20:50;;;;;;;4.22;1.77;;;23.60;92.60;;;;;;4966981;28;20051;-54
2021/08/25 09:23:21;;;;;;;6.53;2.00;;;24.30;87.90;;;;;;4963477;28;20117;-55
2021/08/25 09:26:00;;;;;;;3.33;1.60;;;23.90;84.70;;;;;;4966614;28;20055;-54
2021/08/25 09:28:33;;;;;;;3.25;1.60;;;23.80;86.80;;;;;;4960932;28;20058;-55
2021/08/25 09:31:12;;;;;;;3.72;1.50;;;23.60;86.30;;;;;;4966559;28;20054;-54
2021/08/25 09:33:43;;;;;;;4.03;1.95;;;23.50;90.20;;;;;;4949088;28;20075;-56
2021/08/25 09:36:13;;;;;;;4.20;1.77;;;23.70;90.00;;;;;;4949338;28;20142;-56
2021/08/25 09:38:53;;;;;;;4.22;1.73;;;23.50;88.10;;;;;;4966123;28;20047;-53
2021/08/25 09:41:22;;;;;;;3.88;2.30;;;22.90;91.20;;;;;;4967284;28;20699;-53
2021/08/25 09:43:57;;;;;;;3.97;1.83;;;22.60;92.60;;;;;;4964811;28;20097;-55
2021/08/25 09:46:26;;;;;;;4.78;1.95;;;23.20;93.40;;;;;;4967644;28;20059;-52
2021/08/25 09:49:00;;;;;;;3.90;1.52;;;23.90;82.50;;;;;;4951717;28;20059;-55
2021/08/25 09:51:38;;;;;;;;;;;24.80;80.40;;;;;;4948901;29;20094;-55
2021/08/25 09:54:11;;;;;;;3.05;1.52;;;24.10;74.50;;;;;;4965685;28;20282;-58
2021/08/25 09:56:40;;;;;;;3.75;1.60;;;23.90;76.70;;;;;;4948474;28;20065;-56
2021/08/25 09:59:09;;;;;;;2.55;1.40;;;22.90;77.30;;;;;;4965502;28;20081;-54
2021/08/25 10:01:46;;;;;;;4.65;1.40;;;22.60;82.80;;;;;;4966193;28;20459;-55
2021/08/25 10:04:14;;;;;;;3.63;1.55;;;23.00;82.50;;;;;;4962324;28;20070;-56
2021/08/25 10:06:47;;;;;;;4.28;1.42;;;23.60;80.10;;;;;;4951675;29;20047;-55
2021/08/25 10:09:17;;;;;;;3.42;1.52;;;24.10;78.30;;;;;;4960522;28;20054;-56
2021/08/25 10:11:52;;;;;;;2.65;1.20;;;25.20;73.50;;;;;;4969602;28;20110;-56
2021/08/25 10:14:21;;;;;;;3.45;1.38;;;24.80;68.70;;;;;;4969362;28;20130;-56
2021/08/25 10:16:53;;;;;;;4.18;1.45;;;24.10;69.10;;;;;;4961133;28;20050;-56
2021/08/25 10:19:26;;;;;;;3.35;1.48;;;24.50;75.10;;;;;;4958707;28;20050;-54
2021/08/25 10:22:02;;;;;;;3.28;1.50;;;25.30;67.30;;;;;;4959592;28;20062;-56
2021/08/25 10:24:54;;;;;;;3.53;0.95;;;25.10;61.20;;;;;;4953707;28;20554;-56
2021/08/25 10:27:30;;;;;;;2.92;1.20;;;25.20;63.40;;;;;;4968687;28;20057;-57
2021/08/25 10:30:12;;;;;;;2.65;1.23;;;25.70;62.10;;;;;;4970256;28;20475;-56
2021/08/25 10:33:01;;;;;;;;;;;26.70;63.10;;;;;;4969826;28;20085;-56
2021/08/25 10:35:34;;;;;;;1.67;0.68;;;26.30;59.50;;;;;;4969361;28;19926;-57
2021/08/25 10:38:26;;;;;;;2.30;1.13;;;25.80;61.40;;;;;;4968765;28;20054;-57
2021/08/25 10:41:15;;;;;;;1.40;0.65;;;25.30;62.40;;;;;;4949448;28;20054;-56
2021/08/25 10:43:49;;;;;;;2.05;0.88;;;24.20;64.00;;;;;;4968200;28;20495;-56
2021/08/25 10:46:19;;;;;;;2.42;1.00;;;23.80;68.20;;;;;;4969209;28;20058;-55
2021/08/25 10:49:05;;;;;;;1.58;0.70;;;23.80;69.50;;;;;;4956816;28;20051;-55
2021/08/25 10:51:40;;;;;;;1.50;0.60;;;24.30;66.00;;;;;;4958349;28;20058;-56
2021/08/25 10:54:14;;;;;;;3.40;1.25;;;25.40;63.20;;;;;;4969062;28;20070;-56
2021/08/25 10:56:45;;;;;;;1.10;0.70;;;25.60;59.30;;;;;;4964883;28;20063;-56
2021/08/25 10:59:19;;;;;;;2.03;0.80;;;26.30;58.90;;;;;;4961885;28;20109;-57
2021/08/25 11:01:47;;;;;;;2.67;0.80;;;27.00;57.20;;;;;;4951311;28;20460;-56
2021/08/25 11:04:18;;;;;;;1.70;0.57;;;26.40;57.10;;;;;;4969984;28;20499;-57
2021/08/25 11:07:01;;;;;;;2.15;0.70;;;26.10;58.80;;;;;;4968489;28;20117;-56
2021/08/25 11:09:36;;;;;;;0.77;0.45;;;25.30;60.00;;;;;;4963029;28;20137;-55
2021/08/25 11:12:35;;;;;;;1.75;0.50;;;24.60;63.90;;;;;;4963369;28;20062;-55
2021/08/25 11:15:04;;;;;;;1.35;0.50;;;24.50;64.90;;;;;;4950711;28;20054;-56
2021/08/25 11:17:33;;;;;;;1.15;0.60;;;24.30;67.60;;;;;;4969471;28;20530;-56
2021/08/25 11:20:07;;;;;;;0.93;0.45;;;23.80;69.00;;;;;;4957891;28;20051;-57
2021/08/25 11:22:35;;;;;;;;;;;23.70;69.60;;;;;;4953352;28;20051;-56
2021/08/25 11:25:13;;;;;;;1.00;0.50;;;23.60;70.90;;;;;;4950243;29;19926;-56
2021/08/25 11:27:51;;;;;;;2.15;0.47;;;22.90;74.40;;;;;;4962857;28;20055;-56
2021/08/25 11:30:25;;;;;;;4.15;0.73;;;22.40;79.80;;;;;;4961738;28;20110;-55
2021/08/25 11:33:00;;;;;;;0.60;0.47;;;22.60;81.00;;;;;;4967326;28;20067;-54
2021/08/25 11:35:44;;;;;;;0.68;0.50;;;22.50;81.40;;;;;;4968398;28;20058;-56
2021/08/25 11:38:16;;;;;;;1.27;0.65;;;22.80;81.50;;;;;;4969614;28;20090;-57
2021/08/25 11:40:44;;;;;;;1.58;0.52;;;22.60;79.00;;;;;;4943777;29;20171;-56
2021/08/25 11:43:19;;;;;;;0.70;0.50;;;22.50;79.80;;;;;;4951786;28;20065;-56
2021/08/25 11:45:51;;;;;;;0.60;0.40;;;22.50;87.60;;;;;;4965205;28;20467;-56
2021/08/25 11:48:30;;;;;;;0.93;0.40;;;21.90;88.80;;;;;;4953583;28;20050;-55
2021/08/25 11:50:59;;;;;;;0.50;0.32;;;22.00;92.80;;;;;;4966237;28;20117;-57
2021/08/25 11:53:31;;;;;;;1.60;0.40;;;22.30;91.70;;;;;;4958205;28;20514;-54
2021/08/25 11:55:59;;;;;;;1.40;0.30;;;22.00;92.00;;;;;;4967323;28;20065;-57
2021/08/25 11:58:31;;;;;;;0.73;0.30;;;22.10;93.00;;;;;;4949254;28;20481;-56
2021/08/25 12:00:58;;;;;;;1.00;0.40;;;22.10;92.20;;;;;;4968582;28;20508;-56
2021/08/25 12:03:38;;;;;;;0.95;0.35;;;21.80;91.80;;;;;;4965676;28;20054;-56
2021/08/25 12:06:08;;;;;;;1.27;0.40;;;22.20;91.60;;;;;;4959593;28;20500;-57
2021/08/25 12:08:39;;;;;;;0.73;0.30;;;22.10;92.30;;;;;;4957472;28;20130;-56
2021/08/25 12:11:10;;;;;;;1.08;0.45;;;22.20;91.60;;;;;;4952953;28;20137;-56
2021/08/25 12:13:47;;;;;;;2.75;1.63;;;22.10;91.50;;;;;;4947008;28;20059;-53
2021/08/25 12:16:30;;;;;;;0.88;0.43;;;22.10;91.80;;;;;;4965939;28;20481;-59
2021/08/25 12:19:01;;;;;;;2.17;0.82;;;22.10;92.10;;;;;;4966970;28;20527;-58
2021/08/25 12:21:37;;;;;;;1.65;0.73;;;22.50;91.60;;;;;;4963777;28;20062;-58
2021/08/25 12:24:09;;;;;;;0.63;0.50;;;22.50;91.10;;;;;;4968489;28;20582;-58
2021/08/25 12:26:40;;;;;;;1.92;0.80;;;22.60;91.60;;;;;;4968326;28;20539;-57
2021/08/25 12:29:09;;;;;;;;;;;22.40;91.90;;;;;;4968915;28;20533;-57
2021/08/25 12:31:37;;;;;;;2.28;1.10;;;22.00;94.10;;;;;;4967854;28;20010;-57
2021/08/25 12:34:06;;;;;;;8.20;6.60;;;21.60;97.60;;;;;;4967074;28;20061;-58
2021/08/25 12:36:37;;;;;;;82.72;75.22;;;21.40;99.20;;;;;;4963998;28;20511;-57
2021/08/25 12:39:08;;;;;;;2.63;0.95;;;21.50;99.90;;;;;;4967624;28;20058;-57
2021/08/25 12:41:41;;;;;;;3.28;1.63;;;21.90;99.90;;;;;;4968199;28;20583;-57
2021/08/25 12:44:11;;;;;;;3.13;2.33;;;21.70;99.90;;;;;;4951351;28;20063;-58
2021/08/25 12:46:58;;;;;;;2.03;1.15;;;21.70;99.90;;;;;;4956874;28;20051;-57
2021/08/25 12:49:29;;;;;;;4.70;3.15;;;21.40;99.90;;;;;;4961257;28;20106;-57
2021/08/25 12:52:01;;;;;;;;;;;21.50;99.90;;;;;;4957823;28;20098;-59